Moffat, Colorado
Current Conditions -  °F | °C
As of 7:16 AM on Wednesday 28 Jan 2015 (Local Time) from K04V Reporting Station
Scattered Clouds Scattered Clouds  
Wind Chill: 30°   Ceiling: Unl
Heat Index: 30°   Visibility: 10mi
Dew Point: 23°   Wind: 0mph
Humidity: 75%   Direction: NA
Pressure: 30.25"   Gusts: NA
Location:  38°N, 105.91°W
Report Text: K04V 281416Z AUTO 00000KT 10SM SCT050 SCT065 M01/M05 A3025 RMK AO2
Loading
Personal Weather Stations






























Interactive Weather Map New forecast layout! Learn more

10-Day Weather Forecast

Advertisements
Track Severe Weather on mobile